sensor_id;sensor_type;location;lat;lon;timestamp;P1;durP1;ratioP1;P2;durP2;ratioP2
27566;SDS011;15006;48.584;9.186;2023-01-04T00:01:14;10.18;;;9.25;;
27566;SDS011;15006;48.584;9.186;2023-01-04T00:03:44;11.10;;;9.93;;
27566;SDS011;15006;48.584;9.186;2023-01-04T00:06:14;13.13;;;9.75;;
27566;SDS011;15006;48.584;9.186;2023-01-04T00:08:42;14.07;;;10.50;;
27566;SDS011;15006;48.584;9.186;2023-01-04T00:11:11;10.70;;;9.60;;
27566;SDS011;15006;48.584;9.186;2023-01-04T00:13:42;10.50;;;9.20;;
27566;SDS011;15006;48.584;9.186;2023-01-04T00:16:12;11.35;;;9.80;;
27566;SDS011;15006;48.584;9.186;2023-01-04T00:18:45;11.88;;;9.68;;
27566;SDS011;15006;48.584;9.186;2023-01-04T00:21:16;12.05;;;9.82;;
27566;SDS011;15006;48.584;9.186;2023-01-04T00:23:48;11.23;;;9.52;;
27566;SDS011;15006;48.584;9.186;2023-01-04T00:26:26;11.95;;;10.57;;
27566;SDS011;15006;48.584;9.186;2023-01-04T00:28:58;16.10;;;10.23;;
27566;SDS011;15006;48.584;9.186;2023-01-04T00:31:29;13.68;;;11.48;;
27566;SDS011;15006;48.584;9.186;2023-01-04T00:33:59;14.23;;;11.20;;
27566;SDS011;15006;48.584;9.186;2023-01-04T00:36:29;13.20;;;11.80;;
27566;SDS011;15006;48.584;9.186;2023-01-04T00:38:58;15.00;;;11.77;;
27566;SDS011;15006;48.584;9.186;2023-01-04T00:41:41;15.07;;;12.02;;
27566;SDS011;15006;48.584;9.186;2023-01-04T00:44:17;17.80;;;12.90;;
27566;SDS011;15006;48.584;9.186;2023-01-04T00:46:51;18.45;;;13.55;;
27566;SDS011;15006;48.584;9.186;2023-01-04T00:49:19;19.95;;;13.73;;
27566;SDS011;15006;48.584;9.186;2023-01-04T00:51:45;18.80;;;14.30;;
27566;SDS011;15006;48.584;9.186;2023-01-04T00:54:12;18.42;;;14.25;;
27566;SDS011;15006;48.584;9.186;2023-01-04T00:56:39;18.27;;;14.38;;
27566;SDS011;15006;48.584;9.186;2023-01-04T00:59:05;19.13;;;14.90;;
27566;SDS011;15006;48.584;9.186;2023-01-04T01:01:32;19.42;;;15.52;;
27566;SDS011;15006;48.584;9.186;2023-01-04T01:03:59;21.15;;;15.85;;
27566;SDS011;15006;48.584;9.186;2023-01-04T01:06:29;42.08;;;14.82;;
27566;SDS011;15006;48.584;9.186;2023-01-04T01:08:56;256.83;;;17.95;;
27566;SDS011;15006;48.584;9.186;2023-01-04T01:11:23;192.50;;;16.65;;
27566;SDS011;15006;48.584;9.186;2023-01-04T01:13:50;161.82;;;14.75;;
27566;SDS011;15006;48.584;9.186;2023-01-04T01:16:18;124.43;;;14.00;;
27566;SDS011;15006;48.584;9.186;2023-01-04T01:18:46;135.32;;;13.77;;
27566;SDS011;15006;48.584;9.186;2023-01-04T01:21:14;135.98;;;14.80;;
27566;SDS011;15006;48.584;9.186;2023-01-04T01:23:48;189.93;;;15.05;;
27566;SDS011;15006;48.584;9.186;2023-01-04T01:26:16;149.35;;;14.52;;
27566;SDS011;15006;48.584;9.186;2023-01-04T01:28:45;181.02;;;15.55;;
27566;SDS011;15006;48.584;9.186;2023-01-04T01:31:12;87.65;;;14.05;;
27566;SDS011;15006;48.584;9.186;2023-01-04T01:33:42;70.00;;;14.57;;
27566;SDS011;15006;48.584;9.186;2023-01-04T01:36:10;63.92;;;13.88;;
27566;SDS011;15006;48.584;9.186;2023-01-04T01:38:38;69.53;;;13.50;;
27566;SDS011;15006;48.584;9.186;2023-01-04T01:41:05;75.35;;;13.93;;
27566;SDS011;15006;48.584;9.186;2023-01-04T01:43:53;23.83;;;12.25;;
27566;SDS011;15006;48.584;9.186;2023-01-04T01:46:34;75.82;;;12.95;;
27566;SDS011;15006;48.584;9.186;2023-01-04T01:49:24;22.70;;;12.07;;
27566;SDS011;15006;48.584;9.186;2023-01-04T01:52:03;26.33;;;12.38;;
27566;SDS011;15006;48.584;9.186;2023-01-04T01:54:35;14.05;;;11.68;;
27566;SDS011;15006;48.584;9.186;2023-01-04T01:57:06;13.75;;;11.88;;
27566;SDS011;15006;48.584;9.186;2023-01-04T01:59:39;14.23;;;11.63;;
27566;SDS011;15006;48.584;9.186;2023-01-04T02:02:07;13.55;;;11.00;;
27566;SDS011;15006;48.584;9.186;2023-01-04T02:04:37;14.33;;;11.77;;
27566;SDS011;15006;48.584;9.186;2023-01-04T02:07:10;15.52;;;10.93;;
27566;SDS011;15006;48.584;9.186;2023-01-04T02:09:40;15.57;;;12.10;;
27566;SDS011;15006;48.584;9.186;2023-01-04T02:12:10;13.10;;;11.52;;
27566;SDS011;15006;48.584;9.186;2023-01-04T02:14:37;12.60;;;11.00;;
27566;SDS011;15006;48.584;9.186;2023-01-04T02:17:09;12.95;;;11.48;;
27566;SDS011;15006;48.584;9.186;2023-01-04T02:26:05;12.10;;;10.77;;
27566;SDS011;15006;48.584;9.186;2023-01-04T02:31:38;12.63;;;11.15;;
27566;SDS011;15006;48.584;9.186;2023-01-04T02:40:00;12.63;;;11.25;;
27566;SDS011;15006;48.584;9.186;2023-01-04T02:42:37;12.63;;;11.00;;
27566;SDS011;15006;48.584;9.186;2023-01-04T02:45:57;14.75;;;12.07;;
27566;SDS011;15006;48.584;9.186;2023-01-04T02:48:35;13.35;;;11.38;;
27566;SDS011;15006;48.584;9.186;2023-01-04T02:51:23;13.63;;;11.15;;
27566;SDS011;15006;48.584;9.186;2023-01-04T02:53:57;13.32;;;11.15;;
27566;SDS011;15006;48.584;9.186;2023-01-04T03:02:18;17.23;;;12.85;;
27566;SDS011;15006;48.584;9.186;2023-01-04T03:13:52;14.40;;;12.50;;
27566;SDS011;15006;48.584;9.186;2023-01-04T03:16:23;14.90;;;12.07;;
27566;SDS011;15006;48.584;9.186;2023-01-04T03:18:51;15.10;;;12.32;;
27566;SDS011;15006;48.584;9.186;2023-01-04T03:21:22;9.75;;;8.75;;
27566;SDS011;15006;48.584;9.186;2023-01-04T03:23:51;13.95;;;11.52;;
27566;SDS011;15006;48.584;9.186;2023-01-04T03:26:45;10.20;;;8.73;;
27566;SDS011;15006;48.584;9.186;2023-01-04T03:29:36;14.02;;;11.90;;
27566;SDS011;15006;48.584;9.186;2023-01-04T03:35:39;14.95;;;12.10;;
27566;SDS011;15006;48.584;9.186;2023-01-04T03:44:35;14.23;;;10.57;;
27566;SDS011;15006;48.584;9.186;2023-01-04T03:47:47;11.45;;;10.30;;
27566;SDS011;15006;48.584;9.186;2023-01-04T03:51:12;10.80;;;9.73;;
27566;SDS011;15006;48.584;9.186;2023-01-04T03:56:31;10.52;;;9.45;;
27566;SDS011;15006;48.584;9.186;2023-01-04T03:59:00;12.52;;;10.68;;
27566;SDS011;15006;48.584;9.186;2023-01-04T04:01:27;13.52;;;11.00;;
27566;SDS011;15006;48.584;9.186;2023-01-04T04:03:53;15.63;;;11.75;;
27566;SDS011;15006;48.584;9.186;2023-01-04T04:06:38;11.98;;;10.68;;
27566;SDS011;15006;48.584;9.186;2023-01-04T04:09:23;13.95;;;11.65;;
27566;SDS011;15006;48.584;9.186;2023-01-04T04:11:49;11.85;;;10.60;;
27566;SDS011;15006;48.584;9.186;2023-01-04T04:14:15;11.27;;;10.05;;
27566;SDS011;15006;48.584;9.186;2023-01-04T04:16:41;12.00;;;10.77;;
27566;SDS011;15006;48.584;9.186;2023-01-04T04:19:07;11.23;;;9.98;;
27566;SDS011;15006;48.584;9.186;2023-01-04T04:21:33;13.18;;;10.98;;
27566;SDS011;15006;48.584;9.186;2023-01-04T04:23:59;12.13;;;10.55;;
27566;SDS011;15006;48.584;9.186;2023-01-04T04:26:25;12.32;;;11.02;;
27566;SDS011;15006;48.584;9.186;2023-01-04T04:28:51;14.98;;;11.00;;
27566;SDS011;15006;48.584;9.186;2023-01-04T04:31:17;13.52;;;10.75;;
27566;SDS011;15006;48.584;9.186;2023-01-04T04:33:43;12.82;;;11.30;;
27566;SDS011;15006;48.584;9.186;2023-01-04T04:36:09;13.52;;;11.07;;
27566;SDS011;15006;48.584;9.186;2023-01-04T04:38:35;12.68;;;11.38;;
27566;SDS011;15006;48.584;9.186;2023-01-04T04:41:09;12.95;;;11.25;;
27566;SDS011;15006;48.584;9.186;2023-01-04T04:43:56;14.02;;;12.00;;
27566;SDS011;15006;48.584;9.186;2023-01-04T04:46:22;14.50;;;11.50;;
27566;SDS011;15006;48.584;9.186;2023-01-04T04:48:49;14.15;;;11.60;;
27566;SDS011;15006;48.584;9.186;2023-01-04T04:51:15;12.25;;;10.95;;
27566;SDS011;15006;48.584;9.186;2023-01-04T04:53:41;12.60;;;11.25;;
27566;SDS011;15006;48.584;9.186;2023-01-04T04:56:07;12.38;;;11.10;;
27566;SDS011;15006;48.584;9.186;2023-01-04T04:58:34;12.32;;;11.02;;
27566;SDS011;15006;48.584;9.186;2023-01-04T05:01:01;11.93;;;10.70;;
27566;SDS011;15006;48.584;9.186;2023-01-04T05:03:27;12.32;;;11.02;;
27566;SDS011;15006;48.584;9.186;2023-01-04T05:05:53;11.85;;;10.13;;
27566;SDS011;15006;48.584;9.186;2023-01-04T05:08:19;10.75;;;9.57;;
27566;SDS011;15006;48.584;9.186;2023-01-04T05:10:45;10.30;;;9.30;;
27566;SDS011;15006;48.584;9.186;2023-01-04T05:13:11;10.23;;;9.23;;
27566;SDS011;15006;48.584;9.186;2023-01-04T05:15:41;10.18;;;9.18;;
27566;SDS011;15006;48.584;9.186;2023-01-04T05:18:11;10.05;;;8.95;;
27566;SDS011;15006;48.584;9.186;2023-01-04T05:20:39;10.60;;;9.50;;
27566;SDS011;15006;48.584;9.186;2023-01-04T05:23:05;9.93;;;9.02;;
27566;SDS011;15006;48.584;9.186;2023-01-04T05:25:34;9.95;;;8.95;;
27566;SDS011;15006;48.584;9.186;2023-01-04T05:28:00;10.60;;;9.50;;
27566;SDS011;15006;48.584;9.186;2023-01-04T05:30:27;10.63;;;9.52;;
27566;SDS011;15006;48.584;9.186;2023-01-04T05:33:12;10.30;;;9.30;;
27566;SDS011;15006;48.584;9.186;2023-01-04T05:35:38;10.07;;;9.20;;
27566;SDS011;15006;48.584;9.186;2023-01-04T05:38:04;10.43;;;9.32;;
27566;SDS011;15006;48.584;9.186;2023-01-04T05:40:30;9.55;;;8.57;;
27566;SDS011;15006;48.584;9.186;2023-01-04T05:42:56;9.75;;;8.85;;
27566;SDS011;15006;48.584;9.186;2023-01-04T05:45:22;9.63;;;8.70;;
27566;SDS011;15006;48.584;9.186;2023-01-04T05:47:49;9.35;;;8.52;;
27566;SDS011;15006;48.584;9.186;2023-01-04T05:50:16;8.63;;;7.82;;
27566;SDS011;15006;48.584;9.186;2023-01-04T05:52:44;9.57;;;8.68;;
27566;SDS011;15006;48.584;9.186;2023-01-04T05:55:11;10.20;;;9.20;;
27566;SDS011;15006;48.584;9.186;2023-01-04T05:57:37;11.27;;;10.10;;
27566;SDS011;15006;48.584;9.186;2023-01-04T06:00:04;10.45;;;9.40;;
27566;SDS011;15006;48.584;9.186;2023-01-04T06:02:32;10.35;;;9.35;;
27566;SDS011;15006;48.584;9.186;2023-01-04T06:04:59;10.50;;;9.40;;
27566;SDS011;15006;48.584;9.186;2023-01-04T06:07:25;10.85;;;9.68;;
27566;SDS011;15006;48.584;9.186;2023-01-04T06:09:52;9.52;;;8.63;;
27566;SDS011;15006;48.584;9.186;2023-01-04T06:12:18;9.27;;;8.32;;
27566;SDS011;15006;48.584;9.186;2023-01-04T06:14:44;11.15;;;9.38;;
27566;SDS011;15006;48.584;9.186;2023-01-04T06:17:10;11.10;;;9.13;;
27566;SDS011;15006;48.584;9.186;2023-01-04T06:19:36;9.35;;;8.52;;
27566;SDS011;15006;48.584;9.186;2023-01-04T06:22:03;10.43;;;9.02;;
27566;SDS011;15006;48.584;9.186;2023-01-04T06:24:29;9.85;;;8.85;;
27566;SDS011;15006;48.584;9.186;2023-01-04T06:26:55;8.43;;;7.53;;
27566;SDS011;15006;48.584;9.186;2023-01-04T06:29:21;11.50;;;9.27;;
27566;SDS011;15006;48.584;9.186;2023-01-04T06:31:47;12.70;;;9.95;;
27566;SDS011;15006;48.584;9.186;2023-01-04T06:34:13;14.63;;;10.15;;
27566;SDS011;15006;48.584;9.186;2023-01-04T06:36:39;16.15;;;11.38;;
27566;SDS011;15006;48.584;9.186;2023-01-04T06:39:06;16.77;;;11.32;;
27566;SDS011;15006;48.584;9.186;2023-01-04T06:41:33;13.48;;;10.65;;
27566;SDS011;15006;48.584;9.186;2023-01-04T06:43:59;18.75;;;10.77;;
27566;SDS011;15006;48.584;9.186;2023-01-04T06:46:27;10.38;;;8.95;;
27566;SDS011;15006;48.584;9.186;2023-01-04T06:48:53;12.52;;;9.88;;
27566;SDS011;15006;48.584;9.186;2023-01-04T06:51:19;10.10;;;9.10;;
27566;SDS011;15006;48.584;9.186;2023-01-04T06:53:45;12.40;;;9.90;;
27566;SDS011;15006;48.584;9.186;2023-01-04T06:56:11;10.30;;;9.27;;
27566;SDS011;15006;48.584;9.186;2023-01-04T06:58:37;9.27;;;8.38;;
27566;SDS011;15006;48.584;9.186;2023-01-04T07:01:04;10.27;;;9.20;;
27566;SDS011;15006;48.584;9.186;2023-01-04T07:03:30;10.52;;;8.63;;
27566;SDS011;15006;48.584;9.186;2023-01-04T07:05:57;7.63;;;7.03;;
27566;SDS011;15006;48.584;9.186;2023-01-04T07:08:23;6.90;;;6.30;;
27566;SDS011;15006;48.584;9.186;2023-01-04T07:10:50;6.90;;;6.30;;
27566;SDS011;15006;48.584;9.186;2023-01-04T07:13:16;7.85;;;6.85;;
27566;SDS011;15006;48.584;9.186;2023-01-04T07:15:42;6.68;;;6.18;;
27566;SDS011;15006;48.584;9.186;2023-01-04T07:18:08;7.80;;;7.25;;
27566;SDS011;15006;48.584;9.186;2023-01-04T07:20:35;10.70;;;8.98;;
27566;SDS011;15006;48.584;9.186;2023-01-04T07:23:03;8.70;;;7.80;;
27566;SDS011;15006;48.584;9.186;2023-01-04T07:25:30;10.30;;;8.52;;
27566;SDS011;15006;48.584;9.186;2023-01-04T07:27:56;7.38;;;6.70;;
27566;SDS011;15006;48.584;9.186;2023-01-04T07:30:22;8.57;;;7.82;;
27566;SDS011;15006;48.584;9.186;2023-01-04T07:32:50;6.32;;;5.82;;
27566;SDS011;15006;48.584;9.186;2023-01-04T07:35:17;7.25;;;6.65;;
27566;SDS011;15006;48.584;9.186;2023-01-04T07:37:43;6.50;;;6.00;;
27566;SDS011;15006;48.584;9.186;2023-01-04T07:40:09;6.13;;;5.63;;
27566;SDS011;15006;48.584;9.186;2023-01-04T07:42:36;5.35;;;4.95;;
27566;SDS011;15006;48.584;9.186;2023-01-04T07:45:04;4.85;;;4.50;;
27566;SDS011;15006;48.584;9.186;2023-01-04T07:47:31;3.28;;;3.08;;
27566;SDS011;15006;48.584;9.186;2023-01-04T07:49:57;4.25;;;3.90;;
27566;SDS011;15006;48.584;9.186;2023-01-04T07:52:24;2.95;;;2.85;;
27566;SDS011;15006;48.584;9.186;2023-01-04T07:54:51;3.47;;;3.17;;
27566;SDS011;15006;48.584;9.186;2023-01-04T07:57:17;3.17;;;2.83;;
27566;SDS011;15006;48.584;9.186;2023-01-04T07:59:43;2.60;;;2.50;;
27566;SDS011;15006;48.584;9.186;2023-01-04T08:02:10;2.53;;;2.42;;
27566;SDS011;15006;48.584;9.186;2023-01-04T08:04:36;2.53;;;2.42;;
27566;SDS011;15006;48.584;9.186;2023-01-04T08:07:02;2.53;;;2.42;;
27566;SDS011;15006;48.584;9.186;2023-01-04T08:09:29;3.65;;;2.20;;
27566;SDS011;15006;48.584;9.186;2023-01-04T08:11:55;2.38;;;2.28;;
27566;SDS011;15006;48.584;9.186;2023-01-04T08:14:21;2.58;;;2.38;;
27566;SDS011;15006;48.584;9.186;2023-01-04T08:16:47;3.15;;;2.60;;
27566;SDS011;15006;48.584;9.186;2023-01-04T08:19:14;2.60;;;2.40;;
27566;SDS011;15006;48.584;9.186;2023-01-04T08:21:42;2.22;;;2.00;;
27566;SDS011;15006;48.584;9.186;2023-01-04T08:24:17;2.10;;;2.00;;
27566;SDS011;15006;48.584;9.186;2023-01-04T08:26:44;2.55;;;2.35;;
27566;SDS011;15006;48.584;9.186;2023-01-04T08:29:11;2.53;;;2.33;;
27566;SDS011;15006;48.584;9.186;2023-01-04T08:31:37;3.03;;;2.83;;
27566;SDS011;15006;48.584;9.186;2023-01-04T08:34:05;2.97;;;2.78;;
27566;SDS011;15006;48.584;9.186;2023-01-04T08:36:33;3.33;;;3.03;;
27566;SDS011;15006;48.584;9.186;2023-01-04T08:39:08;3.10;;;2.88;;
27566;SDS011;15006;48.584;9.186;2023-01-04T08:41:34;3.65;;;3.40;;
27566;SDS011;15006;48.584;9.186;2023-01-04T08:44:21;3.30;;;3.00;;
27566;SDS011;15006;48.584;9.186;2023-01-04T08:46:50;3.60;;;3.40;;
27566;SDS011;15006;48.584;9.186;2023-01-04T08:49:17;2.60;;;2.40;;
27566;SDS011;15006;48.584;9.186;2023-01-04T08:51:44;2.50;;;2.30;;
27566;SDS011;15006;48.584;9.186;2023-01-04T08:54:10;2.50;;;2.40;;
27566;SDS011;15006;48.584;9.186;2023-01-04T08:56:38;3.58;;;2.47;;
27566;SDS011;15006;48.584;9.186;2023-01-04T08:59:04;3.08;;;2.60;;
27566;SDS011;15006;48.584;9.186;2023-01-04T09:01:31;2.50;;;2.30;;
27566;SDS011;15006;48.584;9.186;2023-01-04T09:03:58;2.75;;;2.58;;
27566;SDS011;15006;48.584;9.186;2023-01-04T09:06:24;2.88;;;2.65;;
27566;SDS011;15006;48.584;9.186;2023-01-04T09:08:51;2.53;;;2.33;;
27566;SDS011;15006;48.584;9.186;2023-01-04T09:11:18;6.30;;;2.83;;
27566;SDS011;15006;48.584;9.186;2023-01-04T09:13:46;3.15;;;2.85;;
27566;SDS011;15006;48.584;9.186;2023-01-04T09:16:15;2.63;;;2.42;;
27566;SDS011;15006;48.584;9.186;2023-01-04T09:18:44;2.42;;;2.22;;
27566;SDS011;15006;48.584;9.186;2023-01-04T09:21:15;3.03;;;1.73;;
27566;SDS011;15006;48.584;9.186;2023-01-04T09:23:45;2.90;;;1.77;;
27566;SDS011;15006;48.584;9.186;2023-01-04T09:26:16;1.65;;;1.55;;
27566;SDS011;15006;48.584;9.186;2023-01-04T09:28:46;2.45;;;1.30;;
27566;SDS011;15006;48.584;9.186;2023-01-04T09:31:15;3.17;;;1.40;;
27566;SDS011;15006;48.584;9.186;2023-01-04T09:33:47;0.90;;;0.90;;
27566;SDS011;15006;48.584;9.186;2023-01-04T09:36:14;2.88;;;1.15;;
27566;SDS011;15006;48.584;9.186;2023-01-04T09:38:42;1.30;;;1.20;;
27566;SDS011;15006;48.584;9.186;2023-01-04T09:43:54;0.98;;;0.90;;
27566;SDS011;15006;48.584;9.186;2023-01-04T09:49:19;1.10;;;1.00;;
27566;SDS011;15006;48.584;9.186;2023-01-04T09:52:24;1.60;;;1.10;;
27566;SDS011;15006;48.584;9.186;2023-01-04T09:55:13;1.38;;;0.93;;
27566;SDS011;15006;48.584;9.186;2023-01-04T09:57:52;1.10;;;1.00;;
27566;SDS011;15006;48.584;9.186;2023-01-04T10:00:28;1.20;;;1.10;;
27566;SDS011;15006;48.584;9.186;2023-01-04T10:03:11;1.40;;;1.30;;
27566;SDS011;15006;48.584;9.186;2023-01-04T10:05:45;4.72;;;1.13;;
27566;SDS011;15006;48.584;9.186;2023-01-04T10:08:12;1.23;;;0.80;;
27566;SDS011;15006;48.584;9.186;2023-01-04T10:13:38;0.85;;;0.82;;
27566;SDS011;15006;48.584;9.186;2023-01-04T10:19:06;2.15;;;0.60;;
27566;SDS011;15006;48.584;9.186;2023-01-04T10:21:55;0.80;;;0.70;;
27566;SDS011;15006;48.584;9.186;2023-01-04T10:27:44;1.93;;;0.87;;
27566;SDS011;15006;48.584;9.186;2023-01-04T10:33:24;0.88;;;0.80;;
27566;SDS011;15006;48.584;9.186;2023-01-04T10:36:21;0.77;;;0.60;;
27566;SDS011;15006;48.584;9.186;2023-01-04T10:38:58;0.60;;;0.60;;
27566;SDS011;15006;48.584;9.186;2023-01-04T10:41:34;0.70;;;0.68;;
27566;SDS011;15006;48.584;9.186;2023-01-04T10:44:10;0.70;;;0.70;;
27566;SDS011;15006;48.584;9.186;2023-01-04T10:47:03;1.20;;;0.70;;
27566;SDS011;15006;48.584;9.186;2023-01-04T10:50:10;3.05;;;0.80;;
27566;SDS011;15006;48.584;9.186;2023-01-04T10:52:52;1.40;;;0.70;;
27566;SDS011;15006;48.584;9.186;2023-01-04T10:58:21;1.15;;;1.05;;
27566;SDS011;15006;48.584;9.186;2023-01-04T11:01:07;1.48;;;0.95;;
27566;SDS011;15006;48.584;9.186;2023-01-04T11:03:46;0.88;;;0.80;;
27566;SDS011;15006;48.584;9.186;2023-01-04T11:06:41;1.13;;;1.00;;
27566;SDS011;15006;48.584;9.186;2023-01-04T11:09:14;1.13;;;1.02;;
27566;SDS011;15006;48.584;9.186;2023-01-04T11:11:46;1.38;;;1.00;;
27566;SDS011;15006;48.584;9.186;2023-01-04T11:14:13;1.88;;;1.15;;
27566;SDS011;15006;48.584;9.186;2023-01-04T11:16:40;0.73;;;0.70;;
27566;SDS011;15006;48.584;9.186;2023-01-04T11:19:11;1.15;;;0.70;;
27566;SDS011;15006;48.584;9.186;2023-01-04T11:21:48;0.80;;;0.55;;
27566;SDS011;15006;48.584;9.186;2023-01-04T11:24:21;0.60;;;0.60;;
27566;SDS011;15006;48.584;9.186;2023-01-04T11:26:48;0.55;;;0.55;;
27566;SDS011;15006;48.584;9.186;2023-01-04T11:32:14;3.03;;;0.93;;
27566;SDS011;15006;48.584;9.186;2023-01-04T11:34:59;0.90;;;0.80;;
27566;SDS011;15006;48.584;9.186;2023-01-04T11:37:31;2.70;;;0.70;;
27566;SDS011;15006;48.584;9.186;2023-01-04T11:42:48;0.70;;;0.70;;
27566;SDS011;15006;48.584;9.186;2023-01-04T11:45:35;0.55;;;0.55;;
27566;SDS011;15006;48.584;9.186;2023-01-04T11:48:01;1.35;;;1.25;;
27566;SDS011;15006;48.584;9.186;2023-01-04T11:50:34;0.63;;;0.63;;
27566;SDS011;15006;48.584;9.186;2023-01-04T11:53:06;0.90;;;0.75;;
27566;SDS011;15006;48.584;9.186;2023-01-04T11:56:06;0.88;;;0.82;;
27566;SDS011;15006;48.584;9.186;2023-01-04T11:59:04;0.95;;;0.82;;
27566;SDS011;15006;48.584;9.186;2023-01-04T12:04:49;0.90;;;0.70;;
27566;SDS011;15006;48.584;9.186;2023-01-04T12:07:30;0.70;;;0.70;;
27566;SDS011;15006;48.584;9.186;2023-01-04T12:09:59;0.73;;;0.73;;
27566;SDS011;15006;48.584;9.186;2023-01-04T12:12:32;1.00;;;0.65;;
27566;SDS011;15006;48.584;9.186;2023-01-04T12:14:59;1.00;;;0.90;;
27566;SDS011;15006;48.584;9.186;2023-01-04T12:17:41;0.98;;;0.90;;
27566;SDS011;15006;48.584;9.186;2023-01-04T12:20:19;0.85;;;0.80;;
27566;SDS011;15006;48.584;9.186;2023-01-04T12:22:50;0.60;;;0.60;;
27566;SDS011;15006;48.584;9.186;2023-01-04T12:27:48;1.27;;;0.70;;
27566;SDS011;15006;48.584;9.186;2023-01-04T12:30:36;1.23;;;1.13;;
27566;SDS011;15006;48.584;9.186;2023-01-04T12:43:59;1.20;;;0.70;;
27566;SDS011;15006;48.584;9.186;2023-01-04T12:50:07;0.75;;;0.75;;
27566;SDS011;15006;48.584;9.186;2023-01-04T13:05:58;1.35;;;0.75;;
27566;SDS011;15006;48.584;9.186;2023-01-04T13:08:37;1.33;;;0.70;;
27566;SDS011;15006;48.584;9.186;2023-01-04T13:11:06;1.25;;;1.10;;
27566;SDS011;15006;48.584;9.186;2023-01-04T13:14:20;0.85;;;0.80;;
27566;SDS011;15006;48.584;9.186;2023-01-04T13:19:51;1.15;;;1.15;;
27566;SDS011;15006;48.584;9.186;2023-01-04T13:22:19;1.30;;;1.20;;
27566;SDS011;15006;48.584;9.186;2023-01-04T13:24:52;1.25;;;1.10;;
27566;SDS011;15006;48.584;9.186;2023-01-04T13:27:21;2.35;;;1.17;;
27566;SDS011;15006;48.584;9.186;2023-01-04T13:29:48;1.52;;;1.20;;
27566;SDS011;15006;48.584;9.186;2023-01-04T13:32:26;0.77;;;0.75;;
27566;SDS011;15006;48.584;9.186;2023-01-04T13:35:02;0.80;;;0.80;;
27566;SDS011;15006;48.584;9.186;2023-01-04T13:37:41;0.70;;;0.70;;
27566;SDS011;15006;48.584;9.186;2023-01-04T13:40:13;2.15;;;0.85;;
27566;SDS011;15006;48.584;9.186;2023-01-04T13:42:56;1.23;;;0.80;;
27566;SDS011;15006;48.584;9.186;2023-01-04T13:48:45;1.08;;;0.90;;
27566;SDS011;15006;48.584;9.186;2023-01-04T13:53:51;0.80;;;0.80;;
27566;SDS011;15006;48.584;9.186;2023-01-04T13:56:24;0.85;;;0.73;;
27566;SDS011;15006;48.584;9.186;2023-01-04T13:58:52;0.82;;;0.82;;
27566;SDS011;15006;48.584;9.186;2023-01-04T14:01:28;1.08;;;0.70;;
27566;SDS011;15006;48.584;9.186;2023-01-04T14:04:00;1.52;;;0.60;;
27566;SDS011;15006;48.584;9.186;2023-01-04T14:06:52;0.82;;;0.82;;
27566;SDS011;15006;48.584;9.186;2023-01-04T14:09:21;0.70;;;0.63;;
27566;SDS011;15006;48.584;9.186;2023-01-04T14:11:59;0.77;;;0.70;;
27566;SDS011;15006;48.584;9.186;2023-01-04T14:24:50;1.80;;;0.40;;
27566;SDS011;15006;48.584;9.186;2023-01-04T14:27:35;2.88;;;0.60;;
27566;SDS011;15006;48.584;9.186;2023-01-04T14:32:55;1.95;;;0.70;;
27566;SDS011;15006;48.584;9.186;2023-01-04T14:35:28;2.70;;;0.50;;
27566;SDS011;15006;48.584;9.186;2023-01-04T14:38:00;0.40;;;0.40;;
27566;SDS011;15006;48.584;9.186;2023-01-04T14:40:29;2.13;;;0.60;;
27566;SDS011;15006;48.584;9.186;2023-01-04T14:42:57;1.02;;;0.50;;
27566;SDS011;15006;48.584;9.186;2023-01-04T14:45:23;0.50;;;0.50;;
27566;SDS011;15006;48.584;9.186;2023-01-04T14:47:49;0.40;;;0.40;;
27566;SDS011;15006;48.584;9.186;2023-01-04T14:50:15;0.80;;;0.40;;
27566;SDS011;15006;48.584;9.186;2023-01-04T14:52:50;0.65;;;0.40;;
27566;SDS011;15006;48.584;9.186;2023-01-04T14:55:18;0.65;;;0.50;;
27566;SDS011;15006;48.584;9.186;2023-01-04T14:57:45;1.05;;;0.40;;
27566;SDS011;15006;48.584;9.186;2023-01-04T15:00:11;0.43;;;0.40;;
27566;SDS011;15006;48.584;9.186;2023-01-04T15:02:40;0.65;;;0.50;;
27566;SDS011;15006;48.584;9.186;2023-01-04T15:05:07;2.70;;;0.57;;
27566;SDS011;15006;48.584;9.186;2023-01-04T15:07:38;0.40;;;0.35;;
27566;SDS011;15006;48.584;9.186;2023-01-04T15:10:06;0.40;;;0.40;;
27566;SDS011;15006;48.584;9.186;2023-01-04T15:12:45;0.50;;;0.50;;
27566;SDS011;15006;48.584;9.186;2023-01-04T15:15:11;0.65;;;0.40;;
27566;SDS011;15006;48.584;9.186;2023-01-04T15:17:37;2.80;;;0.40;;
27566;SDS011;15006;48.584;9.186;2023-01-04T15:20:04;2.55;;;0.50;;
27566;SDS011;15006;48.584;9.186;2023-01-04T15:22:31;0.30;;;0.30;;
27566;SDS011;15006;48.584;9.186;2023-01-04T15:24:57;0.40;;;0.40;;
27566;SDS011;15006;48.584;9.186;2023-01-04T15:27:23;4.55;;;0.40;;
27566;SDS011;15006;48.584;9.186;2023-01-04T15:29:49;0.63;;;0.40;;
27566;SDS011;15006;48.584;9.186;2023-01-04T15:32:15;0.40;;;0.40;;
27566;SDS011;15006;48.584;9.186;2023-01-04T15:34:41;1.60;;;0.40;;
27566;SDS011;15006;48.584;9.186;2023-01-04T15:37:07;0.77;;;0.60;;
27566;SDS011;15006;48.584;9.186;2023-01-04T15:39:34;0.60;;;0.60;;
27566;SDS011;15006;48.584;9.186;2023-01-04T15:42:00;0.40;;;0.40;;
27566;SDS011;15006;48.584;9.186;2023-01-04T15:44:44;3.33;;;0.50;;
27566;SDS011;15006;48.584;9.186;2023-01-04T15:47:10;3.35;;;0.60;;
27566;SDS011;15006;48.584;9.186;2023-01-04T15:49:36;0.45;;;0.45;;
27566;SDS011;15006;48.584;9.186;2023-01-04T15:52:02;0.35;;;0.30;;
27566;SDS011;15006;48.584;9.186;2023-01-04T15:54:29;0.93;;;0.60;;
27566;SDS011;15006;48.584;9.186;2023-01-04T15:56:56;0.88;;;0.60;;
27566;SDS011;15006;48.584;9.186;2023-01-04T15:59:22;0.52;;;0.52;;
27566;SDS011;15006;48.584;9.186;2023-01-04T16:01:48;0.70;;;0.50;;
27566;SDS011;15006;48.584;9.186;2023-01-04T16:04:14;0.50;;;0.50;;
27566;SDS011;15006;48.584;9.186;2023-01-04T16:06:40;0.47;;;0.45;;
27566;SDS011;15006;48.584;9.186;2023-01-04T16:09:06;0.98;;;0.40;;
27566;SDS011;15006;48.584;9.186;2023-01-04T16:11:32;3.92;;;0.40;;
27566;SDS011;15006;48.584;9.186;2023-01-04T16:13:58;0.43;;;0.40;;
27566;SDS011;15006;48.584;9.186;2023-01-04T16:16:25;1.63;;;0.52;;
27566;SDS011;15006;48.584;9.186;2023-01-04T16:18:53;0.40;;;0.40;;
27566;SDS011;15006;48.584;9.186;2023-01-04T16:21:22;0.60;;;0.50;;
27566;SDS011;15006;48.584;9.186;2023-01-04T16:23:55;1.93;;;0.60;;
27566;SDS011;15006;48.584;9.186;2023-01-04T16:26:23;1.63;;;0.50;;
27566;SDS011;15006;48.584;9.186;2023-01-04T16:28:49;0.95;;;0.50;;
27566;SDS011;15006;48.584;9.186;2023-01-04T16:31:17;0.75;;;0.40;;
27566;SDS011;15006;48.584;9.186;2023-01-04T16:33:44;0.82;;;0.63;;
27566;SDS011;15006;48.584;9.186;2023-01-04T16:36:12;0.43;;;0.43;;
27566;SDS011;15006;48.584;9.186;2023-01-04T16:38:40;0.70;;;0.60;;
27566;SDS011;15006;48.584;9.186;2023-01-04T16:41:13;0.95;;;0.80;;
27566;SDS011;15006;48.584;9.186;2023-01-04T16:43:45;0.43;;;0.43;;
27566;SDS011;15006;48.584;9.186;2023-01-04T16:46:16;1.30;;;0.50;;
27566;SDS011;15006;48.584;9.186;2023-01-04T16:48:52;0.50;;;0.50;;
27566;SDS011;15006;48.584;9.186;2023-01-04T16:51:24;0.57;;;0.57;;
27566;SDS011;15006;48.584;9.186;2023-01-04T16:53:53;0.80;;;0.70;;
27566;SDS011;15006;48.584;9.186;2023-01-04T16:56:19;0.70;;;0.60;;
27566;SDS011;15006;48.584;9.186;2023-01-04T16:58:47;1.00;;;0.70;;
27566;SDS011;15006;48.584;9.186;2023-01-04T17:01:15;0.65;;;0.65;;
27566;SDS011;15006;48.584;9.186;2023-01-04T17:03:53;9.93;;;0.85;;
27566;SDS011;15006;48.584;9.186;2023-01-04T17:06:24;0.60;;;0.60;;